Time;durP1;ratioP1;P1;durP2;ratioP2;P2;SDS_P1;SDS_P2;PMS_P1;PMS_P2;Temp;Humidity;BMP_temperature;BMP_pressure;BME280_temperature;BME280_humidity;BME280_pressure;Samples;Min_cycle;Max_cycle;Signal;HPM_P1;HPM_P2
2022/09/19 00:01:56;;;;;;;0.60;0.50;;;8.70;99.90;;;11.93;59.36;97638.16;5027659;28;20412;-62
2022/09/19 00:04:31;;;;;;;0.50;0.50;;;8.70;99.90;;;11.80;59.48;97644.81;5010788;28;20080;-63
2022/09/19 00:07:00;;;;;;;1.13;0.60;;;8.60;99.90;;;11.83;59.44;97638.31;5026217;28;20069;-63
2022/09/19 00:09:32;;;;;;;0.80;0.40;;;8.60;99.90;;;11.86;59.60;97647.81;5025871;28;20492;-63
2022/09/19 00:12:01;;;;;;;0.50;0.50;;;8.70;99.90;;;11.88;59.32;97651.97;5025414;28;20048;-62
2022/09/19 00:14:33;;;;;;;0.30;0.30;;;8.70;99.90;;;11.96;59.22;97656.47;5027135;28;20075;-62
2022/09/19 00:17:07;;;;;;;0.63;0.40;;;8.70;99.90;;;12.03;59.01;97654.81;5028078;28;20061;-64
2022/09/19 00:19:37;;;;;;;0.40;0.40;;;8.70;99.90;;;11.85;59.43;97656.81;5026004;28;20049;-63
2022/09/19 00:22:06;;;;;;;1.60;1.10;;;8.60;99.90;;;11.84;58.79;97658.63;5025227;28;20053;-63
2022/09/19 00:24:46;;;;;;;0.37;0.37;;;8.60;99.90;;;11.84;58.76;97661.31;5025430;28;20270;-63
2022/09/19 00:27:22;;;;;;;0.63;0.40;;;8.60;99.90;;;11.75;59.39;97654.34;5026445;28;20047;-63
2022/09/19 00:29:51;;;;;;;0.40;0.40;;;8.50;99.90;;;11.77;59.02;97660.34;5027333;28;20051;-63
2022/09/19 00:32:23;;;;;;;0.47;0.40;;;8.50;99.90;;;11.67;58.95;97655.19;5023989;28;20059;-63
2022/09/19 00:34:55;;;;;;;0.40;0.40;;;8.40;99.90;;;11.70;59.00;97657.50;5041716;28;20053;-63
2022/09/19 00:37:24;;;;;;;0.47;0.43;;;8.50;99.90;;;11.62;59.35;97662.84;5009344;28;20057;-63
2022/09/19 00:39:54;;;;;;;0.60;0.30;;;8.40;99.90;;;11.68;58.51;97667.50;5024450;28;20046;-63
2022/09/19 00:42:25;;;;;;;0.50;0.50;;;8.50;99.90;;;11.69;58.87;97673.66;5024876;28;20050;-63
2022/09/19 00:45:01;;;;;;;0.40;0.40;;;8.40;99.90;;;11.70;58.78;97665.50;5008689;28;20059;-63
2022/09/19 00:47:44;;;;;;;1.13;0.50;;;8.50;99.90;;;11.63;58.53;97661.81;5025496;28;20053;-62
2022/09/19 00:50:22;;;;;;;0.93;0.60;;;8.40;99.90;;;11.62;58.62;97662.84;5025339;28;20053;-63
2022/09/19 00:53:11;;;;;;;0.40;0.40;;;8.40;99.90;;;11.53;58.75;97664.66;5025063;28;20254;-62
2022/09/19 00:55:40;;;;;;;1.20;0.50;;;8.30;99.90;;;11.54;58.50;97665.50;5025381;28;20042;-62
2022/09/19 00:58:25;;;;;;;1.30;1.20;;;8.30;99.90;;;11.33;59.05;97661.50;5008564;28;20289;-64
2022/09/19 01:00:54;;;;;;;0.43;0.30;;;8.20;99.90;;;11.31;59.19;97665.34;5025359;28;20061;-64
2022/09/19 01:03:25;;;;;;;0.30;0.30;;;8.10;99.90;;;11.31;59.05;97674.16;5024184;28;20128;-64
2022/09/19 01:06:35;;;;;;;0.50;0.50;;;8.20;99.90;;;11.29;59.14;97678.00;5025201;28;20051;-62
2022/09/19 01:09:35;;;;;;;0.60;0.30;;;8.20;99.90;;;11.35;58.85;97691.47;5024907;28;20221;-65
2022/09/19 01:12:13;;;;;;;0.40;0.40;;;8.20;99.90;;;11.12;59.13;97685.13;5024258;28;20052;-62
2022/09/19 01:14:51;;;;;;;0.67;0.50;;;8.10;99.90;;;11.14;59.21;97678.63;5024458;28;20065;-63
2022/09/19 01:17:46;;;;;;;1.23;0.50;;;8.10;99.90;;;11.22;59.10;97678.66;5025161;28;20169;-63
2022/09/19 01:20:45;;;;;;;0.50;0.47;;;8.10;99.90;;;11.25;58.94;97676.66;5011526;28;20079;-65
2022/09/19 01:23:45;;;;;;;0.23;0.23;;;8.10;99.90;;;11.23;59.12;97679.47;5023971;28;20402;-63
2022/09/19 01:26:55;;;;;;;0.50;0.50;;;8.10;99.90;;;11.08;59.42;97684.59;5024567;28;20378;-63
2022/09/19 01:29:47;;;;;;;3.73;0.80;;;8.00;99.90;;;11.07;59.47;97680.28;5024719;28;20053;-63
2022/09/19 01:32:22;;;;;;;0.93;0.43;;;8.00;99.90;;;11.00;59.36;97677.44;5025296;28;20053;-63
2022/09/19 01:35:01;;;;;;;0.50;0.50;;;8.00;99.90;;;11.10;59.11;97685.28;5008956;28;20049;-63
2022/09/19 01:38:00;;;;;;;0.80;0.60;;;8.00;99.90;;;11.06;59.23;97683.13;5009374;28;20084;-63
2022/09/19 01:40:30;;;;;;;0.90;0.60;;;8.00;99.90;;;11.10;59.06;97681.78;5026124;28;20049;-63
2022/09/19 01:43:02;;;;;;;0.82;0.60;;;8.00;99.90;;;10.91;60.00;97694.38;5008469;28;20253;-63
2022/09/19 01:45:38;;;;;;;1.07;0.80;;;8.00;99.90;;;11.01;59.32;97686.25;5024793;28;20060;-63
2022/09/19 01:48:36;;;;;;;1.77;1.00;;;7.90;99.90;;;11.03;59.73;97682.44;5024751;28;20059;-63
2022/09/19 01:51:16;;;;;;;2.13;1.13;;;8.00;99.90;;;10.88;60.16;97683.25;5026308;28;20057;-63
2022/09/19 01:53:59;;;;;;;1.87;1.00;;;7.90;99.90;;;10.97;60.06;97688.44;5024385;28;20079;-63
2022/09/19 01:56:56;;;;;;;1.83;1.27;;;7.90;99.90;;;11.06;59.56;97693.78;5023946;28;20050;-63
2022/09/19 01:59:37;;;;;;;3.30;1.33;;;8.00;99.90;;;10.92;60.17;97689.91;5024865;28;20080;-63
2022/09/19 02:02:46;;;;;;;6.80;2.50;;;8.00;99.90;;;10.95;59.66;97693.09;5012634;28;20057;-62
2022/09/19 02:05:35;;;;;;;2.40;1.60;;;8.00;99.90;;;11.06;59.33;97688.44;5014006;28;20050;-63
2022/09/19 02:08:19;;;;;;;2.57;1.97;;;8.00;99.90;;;10.89;60.02;97688.38;5013000;28;20059;-63
2022/09/19 02:11:00;;;;;;;2.87;0.97;;;8.00;99.90;;;11.00;59.65;97690.75;5029487;28;20057;-63
2022/09/19 02:13:35;;;;;;;4.30;1.67;;;8.00;99.90;;;11.06;59.29;97699.09;5012094;28;20358;-62
2022/09/19 02:16:35;;;;;;;1.23;1.00;;;8.00;99.90;;;10.94;59.43;97695.91;5027963;28;20059;-63
2022/09/19 02:19:25;;;;;;;1.97;0.90;;;7.90;99.90;;;11.04;59.26;97691.25;5027233;28;20050;-62
2022/09/19 02:21:57;;;;;;;2.90;1.10;;;8.00;99.90;;;10.89;60.13;97691.03;5028251;28;20049;-55
2022/09/19 02:24:32;;;;;;;2.10;1.40;;;8.00;99.90;;;10.94;59.91;97698.56;5010324;28;20047;-56
2022/09/19 02:27:08;;;;;;;3.50;0.80;;;8.00;99.90;;;10.98;59.92;97699.91;5028721;28;20063;-56
2022/09/19 02:29:48;;;;;;;3.30;1.87;;;8.00;99.90;;;11.11;59.28;97699.41;5012304;28;20057;-55
2022/09/19 02:32:21;;;;;;;3.23;1.77;;;8.10;99.90;;;11.09;59.69;97699.59;5011933;28;20049;-57
2022/09/19 02:34:55;;;;;;;2.50;1.23;;;8.10;99.90;;;11.13;59.44;97700.13;5011815;28;20067;-55
2022/09/19 02:37:41;;;;;;;1.70;0.80;;;8.10;99.90;;;11.17;59.41;97704.13;5027832;28;20053;-56
2022/09/19 02:40:24;;;;;;;1.30;0.87;;;8.10;99.90;;;11.06;59.28;97701.75;5012866;28;20061;-56
2022/09/19 02:43:06;;;;;;;2.05;1.90;;;8.10;99.90;;;11.18;59.08;97700.44;5026581;28;20049;-55
2022/09/19 02:45:44;;;;;;;4.23;1.17;;;8.10;99.90;;;11.07;59.60;97706.06;5027030;28;20069;-59
2022/09/19 02:48:45;;;;;;;2.63;2.20;;;8.10;99.90;;;11.02;59.43;97699.41;5011258;28;20058;-56
2022/09/19 02:51:18;;;;;;;2.73;1.00;;;8.10;99.90;;;11.01;58.67;97697.75;5028541;28;20056;-58
2022/09/19 02:53:57;;;;;;;1.60;0.60;;;8.00;99.90;;;10.94;59.32;97695.91;5010604;28;20067;-59
2022/09/19 02:56:34;;;;;;;2.03;0.97;;;8.00;99.90;;;10.96;59.54;97707.22;5011425;28;20263;-58
2022/09/19 02:59:20;;;;;;;1.50;0.83;;;8.00;99.90;;;11.00;59.16;97703.25;5012483;28;20054;-57
2022/09/19 03:02:08;;;;;;;1.70;1.10;;;8.00;99.90;;;11.11;59.12;97710.09;5013833;28;20049;-59
2022/09/19 03:04:42;;;;;;;2.83;0.80;;;8.10;99.90;;;11.07;59.14;97704.28;5009613;28;20626;-58
2022/09/19 03:07:34;;;;;;;1.90;0.77;;;8.10;99.90;;;11.12;59.03;97712.59;5010816;28;20049;-57
2022/09/19 03:10:27;;;;;;;11.70;3.60;;;8.10;99.90;;;11.05;59.20;97714.25;5011214;28;20053;-56
2022/09/19 03:13:06;;;;;;;4.93;2.23;;;8.10;99.90;;;11.09;58.80;97718.25;5042904;28;20050;-58
2022/09/19 03:15:56;;;;;;;3.70;1.70;;;8.10;99.90;;;11.15;58.83;97724.78;5011404;28;20351;-57
2022/09/19 03:18:35;;;;;;;2.90;1.60;;;8.10;99.90;;;11.17;58.68;97728.09;5026625;28;20052;-55
2022/09/19 03:21:08;;;;;;;3.13;1.50;;;8.10;99.90;;;11.04;59.14;97725.91;5027442;28;20057;-56
2022/09/19 03:23:45;;;;;;;2.97;1.00;;;8.10;99.90;;;11.10;59.00;97727.91;5010587;28;20061;-56
2022/09/19 03:26:30;;;;;;;2.63;1.67;;;8.10;99.90;;;11.18;58.96;97732.41;5009441;28;20057;-54
2022/09/19 03:29:04;;;;;;;3.72;0.90;;;8.20;99.90;;;11.21;58.97;97732.94;5025084;28;20061;-57
2022/09/19 03:31:47;;;;;;;3.17;1.27;;;8.20;99.90;;;11.23;58.66;97735.44;5028543;28;20839;-57
2022/09/19 03:34:16;;;;;;;3.17;1.23;;;8.30;99.90;;;11.32;58.88;97736.28;5010396;28;20083;-56
2022/09/19 03:36:44;;;;;;;3.50;1.50;;;8.30;99.90;;;11.37;58.86;97745.44;5025791;28;20061;-56
2022/09/19 03:39:18;;;;;;;;;;;8.40;99.90;;;11.34;59.07;97739.63;5027452;28;20371;-57
2022/09/19 03:41:45;;;;;;;4.57;1.20;;;8.30;99.90;;;11.45;58.67;97744.63;5009026;28;19924;-55
2022/09/19 03:44:14;;;;;;;4.57;2.27;;;8.30;99.90;;;11.21;59.19;97738.25;5009250;28;20064;-55
2022/09/19 03:46:43;;;;;;;2.83;2.20;;;8.30;99.90;;;11.36;59.08;97741.13;5026362;28;20058;-56
2022/09/19 03:49:13;;;;;;;3.67;1.90;;;8.30;99.90;;;11.39;58.67;97743.47;5026056;28;20055;-56
2022/09/19 03:51:41;;;;;;;7.10;3.47;;;8.40;99.90;;;11.49;59.01;97753.97;5024406;28;20045;-56
2022/09/19 03:54:11;;;;;;;3.07;1.93;;;8.50;99.90;;;11.58;58.86;97746.84;5009385;28;20061;-58
2022/09/19 03:56:42;;;;;;;2.30;1.70;;;8.60;99.90;;;11.53;58.58;97741.16;5010835;28;20067;-58
2022/09/19 03:59:11;;;;;;;4.93;1.73;;;8.50;99.90;;;11.51;59.16;97751.97;5010465;28;20057;-56
2022/09/19 04:01:41;;;;;;;3.50;1.60;;;8.60;99.90;;;11.59;58.78;97749.34;5025394;28;20057;-56
2022/09/19 04:04:10;;;;;;;4.13;1.20;;;8.60;99.90;;;11.47;59.15;97755.13;5025165;28;20053;-57
2022/09/19 04:06:58;;;;;;;3.07;1.20;;;8.50;99.90;;;11.56;59.06;97763.00;5025745;28;20343;-55
2022/09/19 04:09:27;;;;;;;1.90;1.30;;;8.50;99.90;;;11.57;59.22;97756.66;5009049;28;20061;-54
2022/09/19 04:11:59;;;;;;;1.97;1.17;;;8.60;99.90;;;11.50;58.94;97766.31;5025961;28;20049;-54
2022/09/19 04:14:35;;;;;;;2.30;1.43;;;8.60;99.90;;;11.36;59.44;97764.28;5010060;28;20057;-56
2022/09/19 04:17:06;;;;;;;4.87;1.40;;;8.50;99.90;;;11.35;59.65;97771.44;5009518;28;20067;-54
2022/09/19 04:19:52;;;;;;;2.73;1.30;;;8.50;99.90;;;11.41;59.66;97775.28;5009805;28;20083;-56
2022/09/19 04:22:40;;;;;;;3.50;1.10;;;8.50;99.90;;;11.66;59.07;97772.66;5023868;28;20069;-56
2022/09/19 04:25:38;;;;;;;2.17;1.10;;;8.60;99.90;;;11.55;59.37;97771.97;5027358;28;20053;-56
2022/09/19 04:28:14;;;;;;;3.20;1.30;;;8.60;99.90;;;11.72;58.74;97761.34;5027866;28;20208;-56
2022/09/19 04:30:41;;;;;;;6.33;1.50;;;8.70;99.90;;;11.67;58.94;97774.31;5026593;28;20041;-55
2022/09/19 04:33:13;;;;;;;2.73;1.60;;;8.70;99.90;;;11.42;59.45;97774.31;5025228;28;20053;-56
2022/09/19 04:35:43;;;;;;;0.97;0.77;;;8.70;99.90;;;11.26;60.31;97775.06;5024642;28;20060;-57
2022/09/19 04:38:19;;;;;;;2.97;1.13;;;8.60;99.90;;;11.18;60.26;97773.22;5025833;28;20061;-56
2022/09/19 04:40:56;;;;;;;0.77;0.67;;;8.60;99.90;;;11.14;60.60;97774.53;5010096;28;20061;-55
2022/09/19 04:43:28;;;;;;;4.30;3.40;;;8.60;99.90;;;11.12;60.77;97773.03;5024609;28;20061;-56
2022/09/19 04:46:21;;;;;;;2.83;1.47;;;8.60;99.90;;;11.47;59.62;97779.97;5025372;28;20061;-54
2022/09/19 04:48:52;;;;;;;4.47;1.40;;;8.70;99.90;;;11.28;60.15;97778.41;5010382;28;20053;-55
2022/09/19 04:51:30;;;;;;;6.37;2.50;;;8.70;99.90;;;11.28;60.21;97782.91;5024763;28;20053;-56
2022/09/19 04:54:01;;;;;;;;;;;8.70;99.90;;;11.30;60.60;97778.25;5025940;28;20358;-56
2022/09/19 04:56:29;;;;;;;6.07;1.73;;;8.70;99.90;;;11.36;59.81;97773.13;5007960;28;19925;-56
2022/09/19 04:58:59;;;;;;;8.27;1.37;;;8.70;99.90;;;11.15;60.69;97783.38;5008887;28;20053;-53
2022/09/19 05:01:28;;;;;;;3.40;1.70;;;8.70;99.90;;;11.19;60.46;97784.72;5025393;28;20344;-58
2022/09/19 05:03:58;;;;;;;3.97;1.83;;;8.70;99.90;;;10.97;61.51;97784.31;5024934;28;20437;-58
2022/09/19 05:06:29;;;;;;;4.57;1.33;;;8.60;99.90;;;11.12;60.87;97778.38;5025958;28;20045;-58
2022/09/19 05:09:00;;;;;;;2.50;1.20;;;8.70;99.90;;;11.08;60.81;97787.69;5010011;28;20057;-58
2022/09/19 05:11:46;;;;;;;3.67;1.57;;;8.60;99.90;;;10.67;62.60;97796.31;5024952;28;20049;-58
2022/09/19 05:14:14;;;;;;;4.50;1.60;;;8.60;99.90;;;10.71;62.57;97796.84;5023119;28;20068;-58
2022/09/19 05:16:50;;;;;;;3.13;1.53;;;8.60;99.90;;;10.99;61.27;97793.00;5041474;28;20247;-55
2022/09/19 05:19:21;;;;;;;4.40;1.60;;;8.60;99.90;;;10.74;62.63;97793.84;5025322;28;20361;-55
2022/09/19 05:21:51;;;;;;;5.13;1.40;;;8.60;99.90;;;11.13;61.51;97804.03;5024336;28;20061;-56
2022/09/19 05:24:19;;;;;;;6.90;1.40;;;8.70;99.90;;;11.14;60.92;97808.34;5024932;28;20331;-55
2022/09/19 05:26:47;;;;;;;2.87;1.43;;;8.70;99.90;;;11.07;61.23;97810.84;5023650;28;20057;-55
2022/09/19 05:29:17;;;;;;;6.93;1.30;;;8.70;99.90;;;11.06;61.77;97806.50;5024824;28;20255;-56
2022/09/19 05:32:04;;;;;;;3.00;1.23;;;8.70;99.90;;;11.16;61.06;97814.34;5025125;28;20128;-55
2022/09/19 05:34:41;;;;;;;1.87;1.30;;;8.70;99.90;;;11.11;61.03;97814.00;5027617;28;20064;-56
2022/09/19 05:37:24;;;;;;;3.33;2.07;;;8.70;99.90;;;11.38;60.33;97815.59;5029335;28;20063;-54
2022/09/19 05:40:10;;;;;;;6.43;2.57;;;8.70;99.90;;;11.39;60.22;97822.59;5028554;28;20053;-55
2022/09/19 05:42:48;;;;;;;14.20;5.23;;;8.70;99.90;;;11.19;60.83;97827.38;5013954;28;20065;-56
2022/09/19 05:45:17;;;;;;;13.07;4.63;;;8.60;99.90;;;11.43;59.85;97819.44;5028589;28;20167;-55
2022/09/19 05:47:45;;;;;;;5.27;2.70;;;8.70;99.90;;;11.19;60.62;97827.38;5029533;28;20053;-55
2022/09/19 05:50:16;;;;;;;10.43;5.30;;;8.60;99.90;;;11.28;60.11;97831.72;5028902;28;20221;-55
2022/09/19 05:55:31;;;;;;;5.13;3.07;;;8.70;99.90;;;11.43;60.23;97837.28;5027337;28;20050;-54
2022/09/19 05:58:17;;;;;;;6.63;1.97;;;8.80;99.90;;;11.49;60.34;97846.44;5034525;28;20251;-55
2022/09/19 06:00:45;;;;;;;6.73;2.70;;;8.80;99.90;;;11.78;59.22;97849.53;5028044;28;20061;-56
2022/09/19 06:03:20;;;;;;;5.50;3.20;;;9.00;99.90;;;11.89;59.49;97852.91;5029309;28;20053;-55
2022/09/19 06:05:51;;;;;;;5.73;1.73;;;9.10;99.90;;;11.88;59.45;97844.03;5011495;28;20045;-56
2022/09/19 06:08:21;;;;;;;5.80;1.90;;;9.10;99.90;;;11.93;58.85;97857.75;5028054;28;20037;-55
2022/09/19 06:10:51;;;;;;;4.90;2.40;;;9.20;99.90;;;12.10;59.01;97850.59;5027592;28;20347;-56
2022/09/19 06:13:23;;;;;;;5.17;1.90;;;9.20;99.90;;;12.06;59.16;97857.28;5043241;28;20058;-57
2022/09/19 06:15:52;;;;;;;5.43;1.80;;;9.20;99.90;;;12.11;59.03;97856.78;5027869;28;20060;-54
2022/09/19 06:18:47;;;;;;;4.32;1.73;;;9.30;99.90;;;12.19;58.64;97862.97;5027983;28;20285;-57
2022/09/19 06:21:15;;;;;;;3.73;1.70;;;9.30;99.90;;;11.95;59.06;97881.59;5028278;28;20055;-54
2022/09/19 06:23:45;;;;;;;8.97;3.57;;;9.30;99.90;;;12.23;58.68;97866.13;5029574;28;20072;-56
2022/09/19 06:26:13;;;;;;;10.67;4.20;;;9.40;99.90;;;12.25;58.61;97874.78;5007524;28;20225;-56
2022/09/19 06:28:41;;;;;;;7.33;3.30;;;9.40;99.90;;;12.08;58.94;97873.97;5027134;28;20060;-57
2022/09/19 06:31:11;;;;;;;6.43;3.33;;;9.40;99.90;;;12.23;58.91;97868.78;5011959;28;20045;-58
2022/09/19 06:34:02;;;;;;;7.37;2.70;;;9.40;99.90;;;12.29;58.45;97862.81;5027982;28;20053;-58
2022/09/19 06:36:34;;;;;;;6.63;2.50;;;9.40;99.90;;;11.91;59.44;97873.09;5011228;28;20053;-58
2022/09/19 06:39:02;;;;;;;9.07;4.23;;;9.40;99.90;;;12.29;58.55;97877.97;5026897;28;20055;-56
2022/09/19 06:41:41;;;;;;;10.67;4.57;;;9.40;99.90;;;12.48;58.37;97876.81;5027480;28;20065;-57
2022/09/19 06:44:17;;;;;;;9.13;4.00;;;9.50;99.90;;;12.52;57.72;97878.13;5026150;28;20053;-57
2022/09/19 06:47:08;;;;;;;6.53;4.13;;;9.60;99.90;;;12.43;57.86;97881.78;5026845;28;20259;-57
2022/09/19 06:50:08;;;;;;;7.50;3.00;;;9.60;99.90;;;12.52;57.68;97883.47;5026165;28;20371;-57
2022/09/19 06:52:46;;;;;;;7.47;3.23;;;9.70;99.90;;;12.47;57.95;97891.16;5042208;28;20056;-57
2022/09/19 06:55:14;;;;;;;8.17;3.50;;;9.70;99.90;;;12.19;58.34;97892.31;5026479;28;20291;-58
2022/09/19 06:58:13;;;;;;;15.23;4.20;;;9.60;99.90;;;12.33;58.33;97897.97;5008769;28;20363;-59
2022/09/19 07:00:44;;;;;;;11.17;5.03;;;9.70;99.90;;;12.54;57.75;97900.16;5006122;28;20072;-57
2022/09/19 07:03:17;;;;;;;6.43;3.67;;;9.80;99.90;;;12.67;57.62;97905.84;4991420;28;20072;-60
2022/09/19 07:05:51;;;;;;;6.20;1.70;;;9.80;99.90;;;12.42;58.23;97905.00;5006512;28;20520;-60
2022/09/19 07:08:26;;;;;;;7.60;2.47;;;9.80;99.90;;;12.51;57.73;97905.84;4991534;28;20252;-60
2022/09/19 07:10:57;;;;;;;9.23;3.70;;;9.80;99.90;;;12.54;58.21;97905.50;4991039;28;20058;-60
2022/09/19 07:13:26;;;;;;;4.13;2.13;;;9.80;99.90;;;12.23;58.56;97910.66;5006605;28;20057;-60
2022/09/19 07:16:02;;;;;;;5.17;2.10;;;9.80;99.90;;;12.61;57.80;97909.19;4991529;28;20267;-60
2022/09/19 07:18:33;;;;;;;5.67;1.87;;;9.90;99.90;;;12.66;57.52;97911.34;5005981;28;20063;-55
2022/09/19 07:21:14;;;;;;;4.47;1.58;;;9.90;99.90;;;12.60;57.50;97915.50;4992352;28;20069;-57
2022/09/19 07:23:47;;;;;;;3.97;1.40;;;9.80;99.90;;;12.26;58.77;97908.50;5007167;28;20080;-56
2022/09/19 07:26:27;;;;;;;7.33;1.57;;;9.80;99.90;;;12.63;57.50;97914.34;4991713;28;20393;-56
2022/09/19 07:28:55;;;;;;;9.17;2.30;;;9.90;99.90;;;12.68;57.86;97912.00;5006183;28;20064;-55
2022/09/19 07:31:26;;;;;;;4.53;1.40;;;10.00;99.90;;;12.82;57.28;97916.69;5006061;28;20045;-56
2022/09/19 07:33:54;;;;;;;8.60;4.33;;;10.10;99.90;;;12.48;58.36;97922.19;5006795;28;20344;-58
2022/09/19 07:36:27;;;;;;;4.87;2.43;;;10.00;99.90;;;12.87;57.25;97921.50;5023687;28;20271;-56
2022/09/19 07:39:01;;;;;;;6.83;2.20;;;10.10;99.90;;;13.03;57.11;97931.31;5008677;28;20049;-57
2022/09/19 07:41:36;;;;;;;3.07;1.60;;;10.30;99.90;;;12.67;57.80;97937.06;5024486;28;20076;-58
2022/09/19 07:44:26;;;;;;;7.53;2.50;;;10.10;99.90;;;12.60;58.12;97934.19;5032141;28;20072;-57
2022/09/19 07:47:26;;;;;;;6.85;2.80;;;10.10;99.90;;;12.79;57.74;97933.88;5016344;28;20053;-58
2022/09/19 07:50:18;;;;;;;6.80;3.10;;;10.20;99.90;;;13.01;57.07;97952.91;5025348;28;20056;-58
2022/09/19 07:53:13;;;;;;;9.63;3.07;;;10.30;99.90;;;12.99;56.72;97953.06;5026158;28;20054;-56
2022/09/19 07:55:42;;;;;;;5.53;2.27;;;10.30;99.90;;;12.90;57.32;97951.41;5010824;28;20061;-57
2022/09/19 07:58:11;;;;;;;6.10;2.23;;;10.30;99.90;;;13.10;56.81;97961.72;5008910;28;20172;-58
2022/09/19 08:00:50;;;;;;;5.00;1.90;;;10.40;99.90;;;13.08;56.98;97963.75;5026905;28;20058;-57
2022/09/19 08:03:37;;;;;;;6.37;2.67;;;10.40;99.90;;;13.41;55.94;97966.38;5028913;28;20060;-57
2022/09/19 08:06:05;;;;;;;7.23;2.03;;;10.60;99.90;;;13.20;56.02;97973.06;5032259;28;20055;-54
2022/09/19 08:08:35;;;;;;;7.20;3.03;;;10.50;99.90;;;13.16;56.45;97977.94;5039804;28;20048;-56
2022/09/19 08:11:12;;;;;;;4.77;2.50;;;10.50;99.90;;;13.25;56.55;97975.25;5033884;28;20057;-56
2022/09/19 08:13:50;;;;;;;5.93;2.10;;;10.50;99.90;;;13.52;55.95;97977.53;5006665;28;20045;-58
2022/09/19 08:16:22;;;;;;;5.03;1.75;;;10.80;99.90;;;13.48;56.03;97981.56;5037598;28;20367;-57
2022/09/19 08:18:50;;;;;;;6.05;3.28;;;10.90;99.90;;;13.34;55.95;97976.94;5036426;28;20045;-56
2022/09/19 08:21:19;;;;;;;8.10;2.40;;;10.90;99.90;;;13.62;55.81;97980.03;5035770;28;20061;-57
2022/09/19 08:23:49;;;;;;;9.80;3.50;;;11.00;99.90;;;13.61;56.11;97977.50;5036011;28;20049;-57
2022/09/19 08:26:30;;;;;;;4.80;1.95;;;11.00;99.90;;;13.85;55.91;97984.63;5038182;28;20049;-54
2022/09/19 08:29:06;;;;;;;3.72;2.13;;;11.20;99.90;;;13.86;55.89;97987.13;5036703;28;20057;-57
2022/09/19 08:31:46;;;;;;;7.03;2.05;;;11.30;99.90;;;13.96;55.25;97990.44;5029384;28;20048;-57
2022/09/19 08:34:19;;;;;;;7.22;1.95;;;11.30;99.90;;;14.14;54.99;97994.69;5036235;28;20371;-56
2022/09/19 08:37:06;;;;;;;9.32;3.83;;;11.40;99.90;;;14.27;54.84;98000.31;5034695;28;20379;-55
2022/09/19 08:40:15;;;;;;;5.80;2.63;;;11.50;99.90;;;14.10;55.03;97996.88;5019810;28;20053;-56
2022/09/19 08:43:27;;;;;;;4.82;2.05;;;11.40;99.90;;;14.25;54.60;97999.66;5035604;28;20057;-56
2022/09/19 08:46:33;;;;;;;5.68;1.77;;;11.50;99.90;;;14.05;54.26;98004.59;5034726;28;20056;-56
2022/09/19 08:49:45;;;;;;;5.25;2.58;;;11.40;99.90;;;14.19;54.18;98003.06;5036295;28;20244;-56
2022/09/19 08:52:43;;;;;;;6.15;2.00;;;11.40;99.90;;;14.11;54.01;98014.63;5036068;28;20059;-55
2022/09/19 08:55:20;;;;;;;6.93;2.33;;;11.40;99.90;;;14.29;54.40;98013.53;5021727;28;20064;-57
2022/09/19 08:58:06;;;;;;;2.55;1.58;;;11.40;99.90;;;14.02;54.79;98012.16;5036520;28;20049;-56
2022/09/19 09:00:55;;;;;;;8.30;2.05;;;11.30;99.90;;;13.94;55.11;98021.88;5036711;28;20052;-56
2022/09/19 09:04:14;;;;;;;5.22;1.50;;;11.20;99.90;;;13.77;55.63;98029.13;5019912;28;20053;-55
2022/09/19 09:06:58;;;;;;;3.28;2.08;;;11.20;99.90;;;13.68;56.15;98026.66;5021163;28;20041;-57
2022/09/19 09:10:24;;;;;;;6.78;2.40;;;11.20;99.90;;;14.03;55.23;98029.88;5010793;28;20584;-57
2022/09/19 09:13:13;;;;;;;4.72;2.10;;;11.40;99.90;;;13.87;55.41;98026.25;5036864;28;20083;-56
2022/09/19 09:15:58;;;;;;;7.70;2.45;;;11.40;99.90;;;14.02;55.56;98026.38;5007836;28;20072;-56
2022/09/19 09:19:05;;;;;;;6.80;3.65;;;11.40;99.90;;;14.07;55.11;98026.66;5023217;28;20063;-55
2022/09/19 09:21:59;;;;;;;5.25;2.53;;;11.40;99.90;;;14.30;54.94;98026.72;5045953;28;20052;-57
2022/09/19 09:24:45;;;;;;;4.88;2.88;;;11.50;99.90;;;14.49;54.46;98030.81;5047760;28;20068;-55
2022/09/19 09:28:25;;;;;;;7.40;2.88;;;11.70;99.90;;;14.42;54.05;98026.34;5034133;28;20065;-57
2022/09/19 09:31:40;;;;;;;8.38;3.15;;;11.70;99.90;;;14.65;53.93;98021.03;5017192;28;20059;-57
2022/09/19 09:34:36;;;;;;;4.60;2.80;;;11.90;99.90;;;14.75;53.76;98022.50;5014660;28;20402;-57
2022/09/19 09:37:34;;;;;;;7.97;3.42;;;12.00;99.90;;;14.90;53.35;98032.41;5012514;28;20068;-58
2022/09/19 09:41:45;;;;;;;6.90;2.45;;;12.20;99.90;;;14.86;53.21;98028.44;5025363;28;20061;-57
2022/09/19 09:43:20;;;;;;;5.10;2.40;;;12.20;99.90;;;15.04;53.39;98028.94;5017884;28;20079;-59
2022/09/19 09:45:54;;;;;;;5.35;1.80;;;12.30;99.90;;;14.77;53.38;98024.97;5032402;28;20060;-59
2022/09/19 09:48:34;;;;;;;6.03;3.05;;;12.10;99.90;;;14.84;53.26;98025.09;5033190;28;20069;-57
2022/09/19 09:51:39;;;;;;;5.78;2.42;;;12.00;99.90;;;14.84;52.96;98027.78;5047595;28;20067;-59
2022/09/19 09:58:00;;;;;;;8.45;1.90;;;12.10;99.90;;;14.37;54.54;98027.69;5047158;28;20253;-59
2022/09/19 10:03:45;;;;;;;5.00;2.22;;;12.20;99.90;;;15.05;53.18;98027.94;5033319;28;20081;-58
2022/09/19 10:07:26;;;;;;;5.40;1.83;;;12.40;99.90;;;14.99;52.56;98028.66;5048416;28;20052;-57
2022/09/19 10:10:19;;;;;;;5.60;2.53;;;12.60;98.70;;;14.94;53.06;98025.69;5032666;28;20056;-55
2022/09/19 10:13:27;;;;;;;4.30;3.47;;;12.50;99.90;;;14.83;53.31;98034.13;5008199;28;20049;-57
2022/09/19 10:16:03;;;;;;;4.65;1.77;;;12.40;99.90;;;15.10;52.83;98030.94;5008780;28;20061;-57
2022/09/19 10:18:46;;;;;;;3.67;1.83;;;12.50;99.90;;;15.18;53.03;98030.03;5009063;28;20376;-57
2022/09/19 10:21:18;;;;;;;6.75;2.35;;;12.60;99.90;;;14.94;53.13;98018.47;4993058;28;20054;-57
2022/09/19 10:23:52;;;;;;;4.38;2.20;;;12.50;99.90;;;15.09;53.09;98025.75;5008198;28;20229;-57
2022/09/19 10:26:29;;;;;;;3.88;2.13;;;12.60;99.90;;;15.08;52.46;98026.75;5007386;28;20291;-60
2022/09/19 10:29:00;;;;;;;4.88;1.55;;;12.50;99.00;;;15.35;52.33;98017.28;4991700;28;20060;-59
2022/09/19 10:31:40;;;;;;;5.78;1.42;;;12.70;99.90;;;15.22;52.37;98023.28;5010738;28;20060;-62
2022/09/19 10:34:34;;;;;;;4.45;1.70;;;12.80;97.30;;;15.25;52.56;98016.72;5007725;28;20263;-58
2022/09/19 10:37:27;;;;;;;2.67;1.75;;;12.80;99.70;;;15.61;52.24;98008.81;5007278;28;20065;-59
2022/09/19 10:40:04;;;;;;;2.45;1.85;;;12.90;99.90;;;15.82;52.36;98016.16;5006996;28;20054;-59
2022/09/19 10:42:42;;;;;;;4.53;1.80;;;13.30;99.90;;;15.77;51.20;98023.09;4991504;28;20057;-59
2022/09/19 10:45:29;;;;;;;5.20;2.72;;;13.30;94.00;;;15.57;51.69;98015.56;4992927;28;20064;-59
2022/09/19 10:48:28;;;;;;;8.27;3.17;;;13.10;95.80;;;15.80;51.52;98012.81;4992707;28;20053;-59
2022/09/19 10:50:58;;;;;;;6.00;2.28;;;13.20;95.90;;;15.84;51.05;98011.44;5005887;28;20046;-59
2022/09/19 10:53:32;;;;;;;2.83;1.98;;;13.30;95.10;;;15.81;51.18;98013.66;4991351;28;20060;-59
2022/09/19 10:56:23;;;;;;;2.47;1.50;;;13.30;93.50;;;15.90;50.92;98016.06;4975995;28;20060;-59
2022/09/19 10:59:29;;;;;;;2.83;2.05;;;13.40;93.50;;;15.85;51.18;98015.75;4994284;28;20263;-59
2022/09/19 11:02:29;;;;;;;3.35;1.90;;;13.40;93.00;;;16.24;50.57;98016.47;4992875;28;20057;-59
2022/09/19 11:05:04;;;;;;;5.32;2.08;;;13.50;92.30;;;16.05;50.62;98020.56;4991616;28;20314;-59
2022/09/19 11:07:50;;;;;;;6.05;1.65;;;13.40;93.70;;;15.77;51.29;98028.47;4992441;28;20259;-59
2022/09/19 11:10:41;;;;;;;4.38;2.25;;;13.30;93.40;;;15.71;50.82;98028.16;4991658;28;20347;-59
2022/09/19 11:13:29;;;;;;;4.68;3.55;;;13.20;92.90;;;16.09;50.78;98029.91;5006104;28;20260;-59
2022/09/19 11:16:20;;;;;;;4.45;1.73;;;13.30;96.40;;;16.02;50.77;98029.84;5006822;28;20061;-59
2022/09/19 11:19:19;;;;;;;3.90;2.00;;;13.30;93.70;;;15.91;50.76;98041.03;4993327;28;20062;-59
2022/09/19 11:22:10;;;;;;;3.70;1.40;;;13.30;92.10;;;15.50;51.54;98036.09;5006472;28;20055;-58
2022/09/19 11:25:25;;;;;;;2.45;1.73;;;13.10;92.40;;;15.17;51.75;98044.44;5007422;28;20060;-61
2022/09/19 11:28:01;;;;;;;6.35;1.73;;;12.90;92.00;;;15.33;52.83;98041.63;5006006;28;20360;-59
2022/09/19 11:30:38;;;;;;;2.65;1.75;;;12.90;96.40;;;15.52;52.17;98039.41;5006479;28;20341;-61